STATION HISTORICAL DATA FROM WUNDERGROUND.COM FOR HIGH PARK VILLAGE,TORONTO,ON,CANADA
 
Daily Summary for September 25, 2018 Units:  Metric    English   Both
Next Day »
Daily Weekly Monthly Yearly Custom
  Current: High: Low: Average:
Temperature: 16.4 °C 17.3 °C 15.4 °C 15.8 °C
Dew Point: 15.3 °C 15.3 °C 13.6 °C 14.2 °C
Humidity: 93% 93% 79% 90%
Wind Speed: 1.9km/h 7.4km/h 0km/h 3.7km/h
Wind Gust: 0.6km/h 4.7km/h - -
WindSouth - - South
Pressure: 1016.8 hPa 1022.6 hPa 1016.8 hPa -
Precipitation: 4.06 mm      
Historical Graphs
 
 
Tabular Data for September 25, 2018
Time Temperature Dew Point Pressure Wind Wind Speed Wind Gust Humidity Rainfall Rate (Hourly) Solar Conditions
00:04 17.3 °C 13.6 °C 1022.6 hPa South 1.9 km/h 0.8 km/h 79% 0 mm 0.00 W/m2
00:09 17.1 °C 13.7 °C 1022.6 hPa South 5.6 km/h 1.1 km/h 80% 0 mm 0.00 W/m2
00:14 16.9 °C 13.7 °C 1022.6 hPa SSW 4.8 km/h 0.2 km/h 81% 0 mm 0.00 W/m2
00:19 16.8 °C 13.7 °C 1022.2 hPa SSW 1.9 km/h   82% 0 mm 0.00 W/m2
00:24 16.6 °C 13.7 °C 1022.2 hPa Calm     83% 0 mm 0.00 W/m2
00:29 16.5 °C 13.8 °C 1022.2 hPa Calm     84% 0 mm 0.00 W/m2
00:34 16.3 °C 13.7 °C 1022.2 hPa SW 1.9 km/h   84% 0 mm 0.00 W/m2
00:39 16.2 °C 13.7 °C 1022.2 hPa SW 1.9 km/h   85% 0 mm 0.00 W/m2
00:44 16.2 °C 13.7 °C 1022.2 hPa SSW 1.9 km/h 0.2 km/h 85% 0 mm 0.00 W/m2
00:49 16.1 °C 13.8 °C 1021.9 hPa Calm     86% 0 mm 0.00 W/m2
00:54 16 °C 13.7 °C 1021.9 hPa Calm     86% 0 mm 0.00 W/m2
00:59 15.9 °C 13.6 °C 1021.9 hPa Calm     86% 0 mm 0.00 W/m2
01:04 15.9 °C 13.8 °C 1021.9 hPa SSW 1.9 km/h 0.3 km/h 87% 0 mm 0.00 W/m2
01:09 15.9 °C 13.8 °C 1021.9 hPa SSW 1.9 km/h 1 km/h 87% 0 mm 0.00 W/m2
01:14 15.9 °C 13.8 °C 1021.9 hPa SSW 1.9 km/h   87% 0 mm 0.00 W/m2
01:19 15.9 °C 13.8 °C 1021.9 hPa South 3.7 km/h 0.6 km/h 87% 0 mm 0.00 W/m2
01:24 15.9 °C 13.8 °C 1021.9 hPa South 3.2 km/h 0.2 km/h 87% 0 mm 0.00 W/m2
01:29 15.9 °C 13.8 °C 1021.9 hPa SW 1.9 km/h 0.2 km/h 87% 0 mm 0.00 W/m2
01:34 15.9 °C 13.8 °C 1021.9 hPa SSW 3.7 km/h 1.3 km/h 87% 0 mm 0.00 W/m2
01:39 15.9 °C 14 °C 1021.6 hPa SSW 1.9 km/h 0.3 km/h 88% 0 mm 0.00 W/m2
01:44 15.9 °C 14 °C 1021.6 hPa SSW 6.4 km/h 0.5 km/h 88% 0 mm 0.00 W/m2
01:49 15.9 °C 14 °C 1021.6 hPa Calm   0.3 km/h 88% 0 mm 0.00 W/m2
01:54 15.9 °C 14 °C 1021.6 hPa South 1.9 km/h 0.2 km/h 88% 3.05 mm 0.00 W/m2 RA
01:59 15.9 °C 14 °C 1021.6 hPa South 1.9 km/h 0.2 km/h 88% 3.05 mm 0.00 W/m2 RA
02:04 15.9 °C 14.2 °C 1021.6 hPa SSW 1.9 km/h 0.3 km/h 89% 3.05 mm 0.00 W/m2
02:09 15.8 °C 14.1 °C 1021.6 hPa SSW 3.7 km/h 0.5 km/h 89% 3.05 mm 0.00 W/m2
02:14 15.8 °C 14.1 °C 1021.2 hPa South 1.9 km/h 0.2 km/h 89% 3.05 mm 0.00 W/m2
02:19 15.8 °C 14.1 °C 1021.2 hPa Calm     89% 3.05 mm 0.00 W/m2
02:24 15.8 °C 14 °C 1021.2 hPa WSW 1.6 km/h   89% 3.05 mm 0.00 W/m2
02:29 15.8 °C 14 °C 1021.2 hPa South 1.9 km/h 0.5 km/h 89% 3.05 mm 0.00 W/m2
02:34 15.7 °C 13.9 °C 1020.9 hPa South 3.7 km/h 0.6 km/h 89% 3.05 mm 0.00 W/m2
02:39 15.7 °C 14.1 °C 1020.9 hPa Calm   0.5 km/h 90% 3.05 mm 0.00 W/m2
02:44 15.7 °C 14.1 °C 1020.9 hPa South 1.9 km/h 0.3 km/h 90% 3.05 mm 0.00 W/m2
02:49 15.7 °C 14.1 °C 1020.9 hPa South 1.9 km/h 0.5 km/h 90% 3.05 mm 0.00 W/m2
02:54 15.7 °C 14.1 °C 1020.9 hPa South 3.7 km/h 1.4 km/h 90% 0 mm 0.00 W/m2
02:59 15.7 °C 14.1 °C 1020.9 hPa South 3.7 km/h 0.6 km/h 90% 0 mm 0.00 W/m2
03:04 15.7 °C 14.1 °C 1020.5 hPa SSW 3.7 km/h 0.5 km/h 90% 0 mm 0.00 W/m2
03:09 15.7 °C 14.1 °C 1020.5 hPa South 7.4 km/h 0.8 km/h 90% 0 mm 0.00 W/m2
03:14 15.8 °C 14.2 °C 1020.5 hPa South 1.9 km/h 0.3 km/h 90% 0 mm 0.00 W/m2
03:19 15.8 °C 14.2 °C 1020.5 hPa South 3.7 km/h 1.1 km/h 90% 0 mm 0.00 W/m2
03:24 15.8 °C 14.2 °C 1020.2 hPa South 5.6 km/h 1.6 km/h 90% 0 mm 0.00 W/m2
03:29 15.8 °C 14.2 °C 1020.2 hPa South 1.9 km/h 0.3 km/h 90% 0 mm 0.00 W/m2
03:34 15.8 °C 14.2 °C 1020.2 hPa South 5.6 km/h 2.9 km/h 90% 0 mm 0.00 W/m2
03:39 15.8 °C 14.2 °C 1020.2 hPa South 5.6 km/h 1.9 km/h 90% 0 mm 0.00 W/m2
03:44 15.8 °C 14.2 °C 1020.2 hPa SSE 5.6 km/h 2.7 km/h 90% 0 mm 0.00 W/m2
03:49 15.7 °C 14.1 °C 1020.2 hPa South 5.6 km/h 1.8 km/h 90% 0 mm 0.00 W/m2
03:54 15.7 °C 14.1 °C 1019.9 hPa South 5.6 km/h 2.3 km/h 90% 0 mm 0.00 W/m2
03:59 15.7 °C 14.1 °C 1019.9 hPa SSW 5.6 km/h 1.1 km/h 90% 0 mm 0.00 W/m2
04:04 15.6 °C 14 °C 1019.9 hPa South 3.7 km/h 0.8 km/h 90% 0 mm 0.00 W/m2
04:09 15.6 °C 13.9 °C 1019.9 hPa SE 3.7 km/h 0.2 km/h 90% 0 mm 0.00 W/m2
04:14 15.6 °C 13.9 °C 1019.9 hPa South 5.6 km/h 1.8 km/h 90% 0 mm 0.00 W/m2
04:19 15.4 °C 13.8 °C 1019.5 hPa South 5.6 km/h 1.3 km/h 90% 0 mm 0.00 W/m2
04:24 15.4 °C 13.8 °C 1019.5 hPa South 3.7 km/h 0.6 km/h 90% 0 mm 0.00 W/m2
04:29 15.4 °C 13.8 °C 1019.5 hPa South 5.6 km/h 2.4 km/h 90% 0 mm 0.00 W/m2
04:34 15.4 °C 13.8 °C 1019.5 hPa South 5.6 km/h 1.9 km/h 90% 0 mm 0.00 W/m2
04:39 15.4 °C 13.8 °C 1019.5 hPa South 5.6 km/h 3.2 km/h 90% 0 mm 0.00 W/m2
04:44 15.4 °C 13.8 °C 1019.5 hPa SSW 7.4 km/h 1.6 km/h 90% 0 mm 0.00 W/m2
04:49 15.5 °C 13.9 °C 1019.5 hPa South 3.7 km/h 0.6 km/h 90% 0 mm 0.00 W/m2
04:54 15.6 °C 13.9 °C 1019.2 hPa South 5.6 km/h 2.1 km/h 90% 0 mm 0.00 W/m2
04:59 15.6 °C 14 °C 1019.5 hPa South 5.6 km/h 1.8 km/h 90% 0 mm 0.00 W/m2
05:04 15.6 °C 14 °C 1019.2 hPa South 3.7 km/h 0.8 km/h 90% 0 mm 0.00 W/m2
05:09 15.6 °C 14 °C 1019.2 hPa South 3.7 km/h 1.4 km/h 90% 0 mm 0.00 W/m2
05:14 15.7 °C 14.1 °C 1019.2 hPa SSW 5.6 km/h 1.6 km/h 90% 0 mm 0.00 W/m2
05:19 15.7 °C 14.1 °C 1019.2 hPa South 3.7 km/h 0.8 km/h 90% 0 mm 0.00 W/m2
05:24 15.6 °C 14 °C 1019.2 hPa South 1.9 km/h 0.2 km/h 90% 0 mm 0.00 W/m2
05:29 15.6 °C 14 °C 1019.2 hPa South 5.6 km/h 0.6 km/h 90% 0 mm 0.00 W/m2
05:34 15.6 °C 13.9 °C 1019.2 hPa South 3.7 km/h 1.3 km/h 90% 0 mm 0.00 W/m2
05:39 15.6 °C 14.1 °C 1019.2 hPa South 5.6 km/h 1.6 km/h 91% 0 mm 0.00 W/m2
05:44 15.6 °C 14.1 °C 1019.2 hPa South 3.7 km/h 1.4 km/h 91% 0 mm 0.00 W/m2
05:49 15.6 °C 14.1 °C 1019.2 hPa SW 5.6 km/h 2.1 km/h 91% 0 mm 0.00 W/m2
05:54 15.5 °C 14.1 °C 1018.8 hPa SSE 7.4 km/h 2.9 km/h 91% 0 mm 0.00 W/m2
05:59 15.4 °C 14 °C 1018.8 hPa South 5.6 km/h 1.3 km/h 91% 0 mm 0.00 W/m2
06:04 15.5 °C 14.1 °C 1018.8 hPa South 3.2 km/h 0.3 km/h 91% 0 mm 0.00 W/m2
06:09 15.4 °C 14 °C 1018.8 hPa SSE 3.2 km/h 0.8 km/h 91% 0 mm 0.00 W/m2
06:14 15.4 °C 14 °C 1018.8 hPa SSE 5.6 km/h 1.9 km/h 91% 0 mm 0.00 W/m2
06:19 15.4 °C 14 °C 1018.8 hPa South 3.2 km/h 1.8 km/h 91% 0 mm 0.00 W/m2
06:24 15.5 °C 14.1 °C 1018.8 hPa South 7.4 km/h 4.7 km/h 91% 0 mm 0.00 W/m2
06:29 15.5 °C 14.1 °C 1018.8 hPa South 3.2 km/h 0.8 km/h 91% 0 mm 0.00 W/m2
06:34 15.5 °C 14.1 °C 1018.8 hPa South 3.7 km/h 1.3 km/h 91% 0 mm 0.00 W/m2
06:39 15.6 °C 14.1 °C 1018.5 hPa South 5.6 km/h 1.8 km/h 91% 0 mm 0.00 W/m2
06:44 15.6 °C 14.2 °C 1018.5 hPa SSW 3.7 km/h 1.6 km/h 91% 0 mm 0.00 W/m2
06:49 15.6 °C 14.2 °C 1018.5 hPa South 5.6 km/h 1.1 km/h 91% 0 mm 0.00 W/m2
06:54 15.6 °C 14 °C 1018.5 hPa SSE 7.4 km/h 3.7 km/h 90% 0 mm 0.00 W/m2
06:59 15.6 °C 14 °C 1018.2 hPa South 5.6 km/h 1.4 km/h 90% 0 mm 0.00 W/m2
07:04 15.7 °C 14.1 °C 1018.2 hPa South 3.7 km/h 0.5 km/h 90% 0 mm 0.00 W/m2 CLR
07:09 15.7 °C 14.1 °C 1018.2 hPa South 3.7 km/h 0.8 km/h 90% 0 mm 0.00 W/m2 CLR
07:14 15.7 °C 14.1 °C 1018.2 hPa SSE 5.6 km/h 1.1 km/h 90% 0 mm 0.00 W/m2 CLR
07:19 15.7 °C 14.1 °C 1018.2 hPa South 3.7 km/h 1.8 km/h 90% 0 mm 0.00 W/m2 CLR
07:24 15.8 °C 14.2 °C 1018.2 hPa South 5.6 km/h 0.6 km/h 90% 0 mm 0.00 W/m2 CLR
07:29 15.8 °C 14.2 °C 1018.2 hPa South 3.7 km/h 1.3 km/h 90% 0 mm 0.00 W/m2 CLR
07:34 15.8 °C 14.2 °C 1018.2 hPa South 3.7 km/h 2.4 km/h 90% 0 mm 0.00 W/m2 CLR
07:39 15.8 °C 14.2 °C 1018.2 hPa South 3.7 km/h 0.6 km/h 90% 0 mm 0.00 W/m2 CLR
07:44 15.8 °C 14.2 °C 1018.2 hPa South 3.7 km/h 1.3 km/h 90% 0 mm 0.00 W/m2 CLR
07:49 15.7 °C 14.1 °C 1018.2 hPa South 3.7 km/h 1 km/h 90% 0 mm 0.00 W/m2 CLR
07:54 15.8 °C 14.3 °C 1018.2 hPa SSE 3.7 km/h 1.3 km/h 91% 0 mm 0.00 W/m2 CLR
07:59 15.7 °C 14.3 °C 1018.2 hPa South 3.2 km/h 1.4 km/h 91% 0 mm 0.00 W/m2 CLR
08:04 15.7 °C 14.3 °C 1018.2 hPa South 5.6 km/h 0.5 km/h 91% 0 mm 0.00 W/m2 CLR
08:09 15.7 °C 14.3 °C 1017.8 hPa South 5.6 km/h 1.1 km/h 91% 0 mm 0.00 W/m2 CLR
08:14 15.7 °C 14.3 °C 1017.8 hPa SSW 1.9 km/h 0.5 km/h 91% 0 mm 0.00 W/m2 CLR
08:19 15.7 °C 14.3 °C 1017.8 hPa South 3.7 km/h 1.4 km/h 91% 0 mm 0.00 W/m2 CLR
08:24 15.7 °C 14.3 °C 1017.8 hPa South 3.7 km/h 0.8 km/h 91% 0 mm 0.00 W/m2 CLR
08:29 15.8 °C 14.5 °C 1017.5 hPa South 3.7 km/h 0.2 km/h 92% 0 mm 5.00 W/m2 CLR
08:34 15.8 °C 14.5 °C 1017.5 hPa South 3.7 km/h 0.5 km/h 92% 0 mm 0.00 W/m2 CLR
08:39 15.8 °C 14.5 °C 1017.5 hPa SSE 1.9 km/h 0.3 km/h 92% 1.02 mm 7.00 W/m2 RA
08:44 15.8 °C 14.6 °C 1017.5 hPa South 5.6 km/h 1.6 km/h 92% 1.02 mm 5.00 W/m2 RA
08:49 15.8 °C 14.6 °C 1017.5 hPa South 5.6 km/h 1.3 km/h 92% 1.02 mm 7.00 W/m2 CLR
08:53 15.9 °C 14.6 °C 1017.5 hPa SSE 5.6 km/h 2.1 km/h 92% 1.02 mm 12.00 W/m2 CLR
08:59 15.9 °C 14.7 °C 1017.2 hPa South 3.7 km/h 1.4 km/h 92% 1.02 mm 14.00 W/m2 CLR
09:04 16 °C 14.7 °C 1017.2 hPa South 3.7 km/h 0.3 km/h 92% 1.02 mm 9.00 W/m2 OVC
09:09 16.1 °C 14.8 °C 1017.2 hPa South 3.7 km/h 1 km/h 92% 1.02 mm 9.00 W/m2 OVC
09:14 16.1 °C 14.8 °C 1017.2 hPa South 3.7 km/h 0.6 km/h 92% 1.02 mm 11.00 W/m2 OVC
09:19 16.1 °C 14.8 °C 1017.2 hPa SSW 5.6 km/h 0.5 km/h 92% 1.02 mm 12.00 W/m2 OVC
09:24 16.2 °C 14.9 °C 1017.2 hPa South 1.9 km/h 1 km/h 92% 1.02 mm 7.00 W/m2 OVC
09:29 16.2 °C 14.9 °C 1017.2 hPa South 3.7 km/h 0.2 km/h 92% 1.02 mm 11.00 W/m2 OVC
09:34 16.2 °C 14.9 °C 1017.2 hPa SSW 3.7 km/h 0.2 km/h 92% 1.02 mm 9.00 W/m2 OVC
09:39 16.2 °C 14.9 °C 1017.2 hPa Calm   0.8 km/h 92% 0 mm 11.00 W/m2 OVC
09:44 16.3 °C 15.2 °C 1017.2 hPa Calm     93% 0 mm 11.00 W/m2 OVC
09:49 16.3 °C 15.2 °C 1017.2 hPa South 1.9 km/h   93% 0 mm 11.00 W/m2 OVC
09:54 16.4 °C 15.3 °C 1017.2 hPa South 3.2 km/h 0.6 km/h 93% 0 mm 12.00 W/m2 OVC
09:59 16.4 °C 15.3 °C 1016.8 hPa South 5.6 km/h 1.6 km/h 93% 0 mm 12.00 W/m2 OVC
10:02 16.4 °C 15.3 °C 1016.8 hPa South 1.9 km/h 0.6 km/h 93% 0 mm 11.00 W/m2 OVC
High Park Village Arhives